createdAt,value
2022-11-06T00:04:00.854Z,97376.00
2022-11-06T00:09:08.026Z,97379.00
2022-11-06T00:14:09.471Z,97368.00
2022-11-06T00:19:16.367Z,97361.00
2022-11-06T00:24:19.989Z,97345.00
2022-11-06T00:29:20.887Z,97331.00
2022-11-06T00:34:21.753Z,97331.00
2022-11-06T00:39:22.484Z,97315.00
2022-11-06T00:44:23.222Z,97326.00
2022-11-06T00:49:23.985Z,97325.00
2022-11-06T00:54:28.296Z,97318.00
2022-11-06T00:59:29.016Z,97318.00
2022-11-06T01:04:32.333Z,97317.00
2022-11-06T01:09:33.015Z,97320.00
2022-11-06T01:14:38.582Z,97321.00
2022-11-06T01:19:39.561Z,97315.00
2022-11-06T01:24:45.917Z,97309.00
2022-11-06T01:29:46.698Z,97308.00
2022-11-06T01:34:50.229Z,97300.00
2022-11-06T01:39:51.166Z,97290.00
2022-11-06T01:46:44.527Z,97283.00
2022-11-06T01:51:57.013Z,97290.00
2022-11-06T01:56:59.831Z,97279.00
2022-11-06T02:02:01.067Z,97271.00
2022-11-06T02:07:03.839Z,97274.00
2022-11-06T02:12:25.744Z,97268.00
2022-11-06T02:18:18.879Z,97269.00
2022-11-06T02:23:42.520Z,97270.00
2022-11-06T02:28:52.143Z,97275.00
2022-11-06T02:34:01.959Z,97263.00
2022-11-06T02:39:13.858Z,97258.00
2022-11-06T02:44:19.728Z,97253.00
2022-11-06T02:51:20.851Z,97253.00
2022-11-06T02:56:28.523Z,97250.00
2022-11-06T03:01:34.257Z,97232.00
2022-11-06T03:06:41.203Z,97230.00
2022-11-06T03:11:58.232Z,97237.00
2022-11-06T03:17:08.424Z,97241.00
2022-11-06T03:22:21.420Z,97237.00
2022-11-06T03:27:31.497Z,97232.00
2022-11-06T03:32:58.894Z,97215.00
2022-11-06T03:38:08.833Z,97209.00
2022-11-06T03:43:17.478Z,97213.00
2022-11-06T03:48:28.481Z,97195.00
2022-11-06T03:53:47.332Z,97205.00
2022-11-06T03:58:49.632Z,97211.00
2022-11-06T04:03:58.055Z,97205.00
2022-11-06T04:09:23.221Z,97208.00
2022-11-06T04:14:32.755Z,97228.00
2022-11-06T04:19:33.524Z,97228.00
2022-11-06T04:28:14.866Z,97230.00
2022-11-06T04:33:51.392Z,97224.00
2022-11-06T04:39:11.795Z,97244.00
2022-11-06T04:44:28.476Z,97241.00
2022-11-06T04:49:33.474Z,97253.00
2022-11-06T04:54:44.036Z,97240.00
2022-11-06T04:59:44.995Z,97220.00
2022-11-06T05:04:49.261Z,97215.00
2022-11-06T05:09:49.998Z,97213.00
2022-11-06T05:14:54.661Z,97198.00
2022-11-06T05:19:55.466Z,97204.00
2022-11-06T05:24:56.349Z,97208.00
2022-11-06T05:30:00.241Z,97208.00
2022-11-06T05:35:04.061Z,97194.00
2022-11-06T05:40:09.336Z,97173.00
2022-11-06T05:45:12.233Z,97158.00
2022-11-06T05:50:16.422Z,97160.00
2022-11-06T05:55:17.281Z,97162.00
2022-11-06T06:00:18.181Z,97156.00
2022-11-06T06:05:18.942Z,97137.00
2022-11-06T06:10:22.530Z,97132.00
2022-11-06T06:15:23.254Z,97115.00
2022-11-06T06:20:25.483Z,97093.00
2022-11-06T06:25:28.130Z,97101.00
2022-11-06T06:30:31.761Z,97097.00
2022-11-06T06:35:33.850Z,97089.00
2022-11-06T06:40:34.825Z,97085.00
2022-11-06T06:45:35.571Z,97091.00
2022-11-06T06:50:39.735Z,97089.00
2022-11-06T06:55:44.456Z,97089.00
2022-11-06T07:00:57.215Z,97106.00
2022-11-06T07:06:01.072Z,97105.00
2022-11-06T07:11:04.723Z,97108.00
2022-11-06T07:16:08.018Z,97108.00
2022-11-06T07:21:14.927Z,97111.00
2022-11-06T07:26:15.870Z,97117.00
2022-11-06T07:31:19.362Z,97122.00
2022-11-06T07:36:20.098Z,97122.00
2022-11-06T07:41:20.814Z,97120.00
2022-11-06T07:46:21.586Z,97126.00
2022-11-06T07:51:22.422Z,97124.00
2022-11-06T07:56:23.217Z,97121.00
2022-11-06T08:01:24.318Z,97115.00
2022-11-06T08:06:25.444Z,97114.00
2022-11-06T08:11:32.394Z,97114.00
2022-11-06T08:16:33.232Z,97103.00
2022-11-06T08:21:37.846Z,97097.00
2022-11-06T08:26:41.630Z,97094.00
2022-11-06T08:31:42.925Z,97078.00
2022-11-06T08:36:49.253Z,97068.00
2022-11-06T08:41:56.548Z,97061.00
2022-11-06T08:46:57.638Z,97062.00
2022-11-06T08:52:00.199Z,97047.00
2022-11-06T08:57:03.797Z,97050.00
2022-11-06T09:02:15.680Z,97041.00
2022-11-06T09:07:16.722Z,97040.00
2022-11-06T09:12:20.782Z,97027.00
2022-11-06T09:17:27.251Z,97024.00
2022-11-06T09:22:31.387Z,97024.00
2022-11-06T09:27:32.216Z,97014.00
2022-11-06T09:32:32.969Z,97015.00
2022-11-06T09:37:35.453Z,97009.00
2022-11-06T09:45:52.303Z,97011.00
2022-11-06T09:51:14.157Z,96992.00
2022-11-06T09:56:25.008Z,96997.00
2022-11-06T10:01:37.824Z,96994.00
2022-11-06T10:06:41.577Z,96998.00
2022-11-06T10:11:58.453Z,96992.00
2022-11-06T10:20:40.575Z,96982.00
2022-11-06T10:26:18.335Z,96982.00
2022-11-06T10:31:41.928Z,96961.00
2022-11-06T10:37:19.672Z,96962.00
2022-11-06T10:42:33.821Z,96957.00
2022-11-06T10:47:44.878Z,96940.00
2022-11-06T10:53:03.052Z,96937.00
2022-11-06T10:58:16.703Z,96927.00
2022-11-06T11:03:33.699Z,96913.00
2022-11-06T11:08:52.367Z,96904.00
2022-11-06T11:14:13.728Z,96897.00
2022-11-06T11:19:40.606Z,96871.00
2022-11-06T11:25:07.020Z,96885.00
2022-11-06T11:30:38.216Z,96880.00
2022-11-06T11:35:39.760Z,96848.00
2022-11-06T11:40:40.926Z,96824.00
2022-11-06T11:45:41.888Z,96815.00
2022-11-06T11:50:43.445Z,96815.00
2022-11-06T11:55:47.243Z,96831.00
2022-11-06T12:01:04.523Z,96807.00
2022-11-06T12:06:11.947Z,96784.00
2022-11-06T12:11:19.974Z,96783.00
2022-11-06T12:16:20.956Z,96780.00
2022-11-06T12:21:31.353Z,96789.00
2022-11-06T12:26:37.788Z,96777.00
2022-11-06T12:31:53.633Z,96742.00
2022-11-06T12:37:10.132Z,96725.00
2022-11-06T12:42:18.603Z,96737.00
2022-11-06T12:47:36.753Z,96731.00
2022-11-06T12:53:07.371Z,96719.00
2022-11-06T12:59:12.511Z,96717.00
2022-11-06T13:04:31.835Z,96699.00
2022-11-06T13:09:45.814Z,96684.00
2022-11-06T13:22:22.030Z,96687.00
2022-11-06T13:29:18.117Z,96660.00
2022-11-06T13:34:29.996Z,96654.00
2022-11-06T13:39:36.669Z,96643.00
2022-11-06T13:44:38.200Z,96634.00
2022-11-06T13:50:25.540Z,96649.00
2022-11-06T13:57:02.643Z,96645.00
2022-11-06T14:03:45.839Z,96641.00
2022-11-06T14:09:03.475Z,96658.00
2022-11-06T14:14:13.670Z,96665.00
2022-11-06T14:19:29.608Z,96640.00
2022-11-06T14:24:38.889Z,96650.00
2022-11-06T14:29:53.945Z,96639.00
2022-11-06T14:34:54.689Z,96632.00
2022-11-06T14:40:05.944Z,96613.00
2022-11-06T14:45:20.166Z,96609.00
2022-11-06T14:51:26.337Z,96607.00
2022-11-06T14:56:33.635Z,96616.00
2022-11-06T15:01:37.512Z,96605.00
2022-11-06T15:06:42.929Z,96593.00
2022-11-06T15:12:17.026Z,96588.00
2022-11-06T15:17:21.116Z,96566.00
2022-11-06T15:22:39.203Z,96580.00
2022-11-06T15:27:52.445Z,96589.00
2022-11-06T15:32:54.320Z,96589.00
2022-11-06T15:38:09.340Z,96592.00
2022-11-06T15:44:12.388Z,96591.00
2022-11-06T15:49:19.304Z,96575.00
2022-11-06T15:54:36.039Z,96575.00
2022-11-06T15:59:39.372Z,96580.00
2022-11-06T16:04:44.377Z,96593.00
2022-11-06T16:09:57.233Z,96591.00
2022-11-06T16:14:58.231Z,96568.00
2022-11-06T16:20:13.291Z,96574.00
2022-11-06T16:25:18.392Z,96576.00
2022-11-06T16:30:25.760Z,96584.00
2022-11-06T16:35:35.522Z,96574.00
2022-11-06T16:40:49.544Z,96561.00
2022-11-06T16:46:07.259Z,96550.00
2022-11-06T16:51:30.428Z,96533.00
2022-11-06T16:56:34.605Z,96536.00
2022-11-06T17:01:38.719Z,96538.00
2022-11-06T17:06:43.651Z,96550.00
2022-11-06T17:11:50.061Z,96545.00
2022-11-06T17:17:06.389Z,96540.00
2022-11-06T17:22:10.686Z,96520.00
2022-11-06T17:27:14.496Z,96519.00
2022-11-06T17:32:15.246Z,96524.00
2022-11-06T17:37:17.846Z,96504.00
2022-11-06T17:42:22.487Z,96532.00
2022-11-06T17:47:23.521Z,96524.00
2022-11-06T17:52:24.485Z,96556.00
2022-11-06T17:57:28.138Z,96574.00
2022-11-06T18:02:59.023Z,96578.00
2022-11-06T18:08:01.250Z,96573.00
2022-11-06T18:13:02.050Z,96577.00
2022-11-06T18:18:07.133Z,96577.00
2022-11-06T18:23:07.867Z,96544.00
2022-11-06T18:28:09.431Z,96541.00
2022-11-06T18:33:10.148Z,96551.00
2022-11-06T18:38:17.956Z,96555.00
2022-11-06T18:43:19.238Z,96544.00
2022-11-06T18:48:21.892Z,96566.00
2022-11-06T18:53:23.330Z,96568.00
2022-11-06T18:58:28.109Z,96585.00
2022-11-06T19:03:29.110Z,96590.00
2022-11-06T19:08:31.009Z,96591.00
2022-11-06T19:13:31.892Z,96597.00
2022-11-06T19:18:38.990Z,96585.00
2022-11-06T19:23:42.179Z,96586.00
2022-11-06T19:28:43.856Z,96586.00
2022-11-06T19:33:57.324Z,96591.00
2022-11-06T19:38:58.968Z,96587.00
2022-11-06T19:44:04.097Z,96583.00
2022-11-06T19:49:06.834Z,96575.00
2022-11-06T19:54:08.890Z,96576.00
2022-11-06T19:59:12.064Z,96591.00
2022-11-06T20:04:13.528Z,96601.00
2022-11-06T20:09:14.444Z,96603.00
2022-11-06T20:14:17.804Z,96603.00
2022-11-06T20:19:18.722Z,96610.00
2022-11-06T20:24:19.584Z,96606.00
2022-11-06T20:29:23.597Z,96625.00
2022-11-06T20:34:24.857Z,96632.00
2022-11-06T20:39:25.846Z,96617.00
2022-11-06T20:44:26.629Z,96633.00
2022-11-06T20:49:28.108Z,96628.00
2022-11-06T20:54:28.946Z,96632.00
2022-11-06T20:59:30.381Z,96639.00
2022-11-06T21:04:31.390Z,96640.00
2022-11-06T21:09:39.295Z,96660.00
2022-11-06T21:14:43.099Z,96662.00
2022-11-06T21:19:44.488Z,96670.00
2022-11-06T21:24:45.264Z,96669.00
2022-11-06T21:29:56.319Z,96664.00
2022-11-06T21:35:00.221Z,96670.00
2022-11-06T21:40:04.225Z,96673.00
2022-11-06T21:45:05.672Z,96680.00
2022-11-06T21:50:09.857Z,96682.00
2022-11-06T21:55:29.164Z,96689.00
2022-11-06T22:00:30.063Z,96690.00
2022-11-06T22:05:31.089Z,96692.00
2022-11-06T22:10:37.960Z,96691.00
2022-11-06T22:15:42.072Z,96692.00
2022-11-06T22:20:42.788Z,96693.00
2022-11-06T22:25:43.536Z,96699.00
2022-11-06T22:30:47.413Z,96706.00
2022-11-06T22:35:48.127Z,96711.00
2022-11-06T22:40:57.840Z,96710.00
2022-11-06T22:46:00.275Z,96712.00
2022-11-06T22:51:06.235Z,96712.00
2022-11-06T22:56:14.577Z,96714.00
2022-11-06T23:01:20.678Z,96722.00
2022-11-06T23:06:22.885Z,96720.00
2022-11-06T23:11:26.074Z,96734.00
2022-11-06T23:16:51.273Z,96738.00
2022-11-06T23:22:34.830Z,96748.00
2022-11-06T23:27:38.671Z,96733.00
2022-11-06T23:32:46.248Z,96744.00
2022-11-06T23:38:06.576Z,96757.00
2022-11-06T23:43:10.747Z,96747.00
2022-11-06T23:48:12.508Z,96751.00
2022-11-06T23:53:15.445Z,96758.00
2022-11-06T23:58:19.124Z,96765.00
